M I D A S
Marine Information and Data Acquisition System
Tripno 1067 of the Zeeleeuw from 2006-04-12 06:24:14 to 2006-04-12 11:47:52
Back to CruiseResearch ActivitiesStationsMapUnderway DataData graphs

EquipmentUnitsComment
TimeDGPSUTC
LatitudeDGPSDM.mWGS84
LongitudeDGPSDM.mWGS84
HeadingGyrodeg 
SOGDGPSknotsSpeed over ground
COGDGPSdegCourse over ground
DepthEcho soundermeters200 kHz
Missing or incorrect values are displayed as -999
Navigation data collected by the RV Zeeleeuw from 2006-04-12 06:04:08 to 2006-04-12 12:02:19
                                                                                    Next 1000 lines
Time Latitude Longitude Heading SOG COG Depth
2006-04-12 06:04:18 51°13.602 2°56.099 125.3 -999 251 -999
2006-04-12 06:04:23 51°13.603 2°56.099 125.3 0.1 6 -999
2006-04-12 06:04:28 51°13.603 2°56.099 125.3 0.1 356 -999
2006-04-12 06:04:33 51°13.602 2°56.099 125.3 -999 344 -999
2006-04-12 06:04:38 51°13.602 2°56.099 125.4 0.1 168 -999
2006-04-12 06:04:43 51°13.602 2°56.099 125.4 0.1 170 -999
2006-04-12 06:04:48 51°13.602 2°56.099 125.4 0.1 166 -999
2006-04-12 06:04:53 51°13.602 2°56.099 125.4 0.1 164 -999
2006-04-12 06:04:58 51°13.602 2°56.099 125.4 0.1 168 -999
2006-04-12 06:05:03 51°13.602 2°56.099 125.4 -999 106 -999
2006-04-12 06:05:08 51°13.602 2°56.099 125.4 -999 118 -999
2006-04-12 06:05:13 51°13.602 2°56.099 125.4 0.1 168 -999
2006-04-12 06:05:18 51°13.602 2°56.099 125.4 -999 30 -999
2006-04-12 06:05:23 51°13.602 2°56.099 125.4 -999 4 -999
2006-04-12 06:05:28 51°13.602 2°56.099 125.4 -999 126 -999
2006-04-12 06:05:33 51°13.602 2°56.099 125.4 -999 2 -999
2006-04-12 06:05:38 51°13.602 2°56.099 125.4 0.1 165 -999
2006-04-12 06:05:43 51°13.602 2°56.099 125.4 -999 172 -999
2006-04-12 06:05:48 51°13.602 2°56.099 125.5 -999 306 -999
2006-04-12 06:05:54 51°13.602 2°56.099 125.5 0.1 359 -999
2006-04-12 06:05:59 51°13.602 2°56.099 125.5 0.1 1 -999
2006-04-12 06:06:04 51°13.601 2°56.099 125.5 -999 188 -999
2006-04-12 06:06:09 51°13.601 2°56.099 125.5 0.1 176 -999
2006-04-12 06:06:14 51°13.601 2°56.099 125.5 -999 164 -999
2006-04-12 06:06:19 51°13.601 2°56.099 125.5 -999 167 -999
2006-04-12 06:06:24 51°13.601 2°56.099 125.5 0.1 172 -999
2006-04-12 06:06:29 51°13.601 2°56.099 125.5 -999 14 -999
2006-04-12 06:06:34 51°13.601 2°56.099 125.5 -999 113 -999
2006-04-12 06:06:39 51°13.601 2°56.099 125.5 -999 191 -999
2006-04-12 06:06:44 51°13.601 2°56.099 125.5 0.1 170 -999
2006-04-12 06:06:49 51°13.601 2°56.098 125.5 -999 11 -999
2006-04-12 06:06:54 51°13.601 2°56.098 125.5 0.1 358 -999
2006-04-12 06:06:59 51°13.601 2°56.098 125.5 -999 170 -999
2006-04-12 06:07:04 51°13.601 2°56.098 125.5 0.1 174 -999
2006-04-12 06:07:09 51°13.601 2°56.098 125.5 -999 161 -999
2006-04-12 06:07:14 51°13.601 2°56.098 125.5 -999 157 -999
2006-04-12 06:07:19 51°13.601 2°56.098 125.5 0.1 163 -999
2006-04-12 06:07:24 51°13.601 2°56.098 125.5 0.1 168 -999
2006-04-12 06:07:29 51°13.601 2°56.098 125.5 0.1 169 -999
2006-04-12 06:07:34 51°13.601 2°56.098 125.5 -999 181 -999
2006-04-12 06:07:39 51°13.601 2°56.098 125.5 0.1 1 -999
2006-04-12 06:07:44 51°13.601 2°56.098 125.5 -999 135 -999
2006-04-12 06:07:48 51°13.601 2°56.098 125.5 -999 144 -999
2006-04-12 06:07:54 51°13.601 2°56.098 125.5 -999 165 -999
2006-04-12 06:07:58 51°13.601 2°56.098 125.5 -999 12 -999
2006-04-12 06:08:04 51°13.601 2°56.098 125.5 0.1 358 -999
2006-04-12 06:08:08 51°13.601 2°56.098 125.5 -999 353 -999
2006-04-12 06:08:13 51°13.601 2°56.098 125.5 -999 8 -999
2006-04-12 06:08:18 51°13.601 2°56.099 125.5 -999 6 -999
2006-04-12 06:08:23 51°13.601 2°56.099 125.5 -999 208 -999
2006-04-12 06:08:28 51°13.601 2°56.099 125.5 -999 90 -999
2006-04-12 06:08:32 51°13.601 2°56.099 125.5 -999 159 -999
2006-04-12 06:08:37 51°13.601 2°56.099 125.5 -999 153 -999
2006-04-12 06:08:42 51°13.601 2°56.099 125.5 -999 144 -999
2006-04-12 06:08:47 51°13.601 2°56.099 125.5 -999 177 -999
2006-04-12 06:08:52 51°13.601 2°56.099 125.5 -999 169 -999
2006-04-12 06:08:56 51°13.601 2°56.099 125.5 0.1 169 -999
2006-04-12 06:09:02 51°13.602 2°56.099 125.5 -999 157 -999
2006-04-12 06:09:06 51°13.602 2°56.099 125.5 -999 112 -999
2006-04-12 06:09:12 51°13.602 2°56.099 125.5 -999 59 -999
2006-04-12 06:09:17 51°13.602 2°56.099 125.5 -999 304 -999
2006-04-12 06:09:22 51°13.602 2°56.099 125.5 -999 163 -999
2006-04-12 06:09:26 51°13.602 2°56.099 125.5 -999 9 -999
2006-04-12 06:09:32 51°13.602 2°56.099 125.5 -999 359 -999
2006-04-12 06:09:37 51°13.602 2°56.099 125.5 -999 169 -999
2006-04-12 06:09:42 51°13.602 2°56.099 125.5 0.1 168 -999
2006-04-12 06:09:46 51°13.602 2°56.099 125.5 -999 13 -999
2006-04-12 06:09:52 51°13.603 2°56.099 125.5 0.1 359 -999
2006-04-12 06:09:57 51°13.603 2°56.099 125.5 -999 5 -999
2006-04-12 06:10:02 51°13.603 2°56.099 125.5 0.1 355 -999
2006-04-12 06:10:06 51°13.603 2°56.099 125.5 0.1 357 -999
2006-04-12 06:10:12 51°13.603 2°56.099 125.5 -999 64 -999
2006-04-12 06:10:17 51°13.603 2°56.099 125.5 -999 163 -999
2006-04-12 06:10:22 51°13.603 2°56.099 125.5 0.1 176 -999
2006-04-12 06:10:26 51°13.603 2°56.099 125.5 -999 181 -999
2006-04-12 06:10:32 51°13.604 2°56.099 125.5 0.1 357 -999
2006-04-12 06:10:37 51°13.604 2°56.099 125.5 0.1 358 -999
2006-04-12 06:10:42 51°13.604 2°56.099 125.5 0.1 167 -999
2006-04-12 06:10:47 51°13.604 2°56.099 125.5 0.1 -999 -999
2006-04-12 06:10:52 51°13.604 2°56.099 125.5 0.1 359 -999
2006-04-12 06:10:56 51°13.604 2°56.099 125.5 0.1 170 -999
2006-04-12 06:11:02 51°13.604 2°56.099 125.5 0.1 147 -999
2006-04-12 06:11:06 51°13.604 2°56.099 125.5 -999 116 -999
2006-04-12 06:11:12 51°13.604 2°56.099 125.5 -999 146 -999
2006-04-12 06:11:17 51°13.604 2°56.099 125.5 -999 175 -999
2006-04-12 06:11:22 51°13.604 2°56.099 125.5 0.1 160 -999
2006-04-12 06:11:26 51°13.605 2°56.099 125.5 -999 154 -999
2006-04-12 06:11:32 51°13.605 2°56.099 125.5 -999 358 -999
2006-04-12 06:11:37 51°13.605 2°56.1 125.5 -999 141 -999
2006-04-12 06:11:42 51°13.605 2°56.099 125.5 0.1 355 -999
2006-04-12 06:11:46 51°13.605 2°56.099 125.5 -999 165 -999
2006-04-12 06:11:52 51°13.605 2°56.1 125.5 -999 11 -999
2006-04-12 06:11:57 51°13.605 2°56.1 125.5 0.1 356 -999
2006-04-12 06:12:02 51°13.605 2°56.1 125.5 -999 4 -999
2006-04-12 06:12:06 51°13.605 2°56.1 125.5 -999 353 -999
2006-04-12 06:12:11 51°13.605 2°56.1 125.5 -999 151 -999
2006-04-12 06:12:16 51°13.605 2°56.1 125.5 -999 127 -999
2006-04-12 06:12:22 51°13.606 2°56.099 125.5 -999 114 -999
2006-04-12 06:12:27 51°13.606 2°56.099 125.5 -999 45 -999
2006-04-12 06:12:32 51°13.606 2°56.099 125.5 0.1 1 -999
2006-04-12 06:12:37 51°13.606 2°56.099 125.5 -999 168 -999
2006-04-12 06:12:42 51°13.606 2°56.099 125.5 -999 177 -999
2006-04-12 06:12:47 51°13.606 2°56.099 125.5 -999 15 -999
2006-04-12 06:12:54 51°13.606 2°56.099 125.5 -999 359 -999
2006-04-12 06:12:59 51°13.606 2°56.099 125.5 -999 18 -999
2006-04-12 06:13:04 51°13.606 2°56.099 125.5 0.1 352 -999
2006-04-12 06:13:09 51°13.606 2°56.099 125.5 0.1 355 -999
2006-04-12 06:13:13 51°13.606 2°56.099 125.6 -999 334 -999
2006-04-12 06:13:19 51°13.606 2°56.099 125.6 -999 152 -999
2006-04-12 06:13:23 51°13.606 2°56.099 125.6 -999 7 -999
2006-04-12 06:13:27 51°13.606 2°56.099 125.6 -999 227 -999
2006-04-12 06:13:31 51°13.606 2°56.099 125.6 0.1 161 -999
2006-04-12 06:13:36 51°13.606 2°56.099 125.6 -999 359 -999
2006-04-12 06:13:41 51°13.606 2°56.099 125.6 -999 169 -999
2006-04-12 06:13:46 51°13.606 2°56.099 125.6 0.1 179 -999
2006-04-12 06:13:51 51°13.606 2°56.099 125.6 -999 180 -999
2006-04-12 06:13:56 51°13.607 2°56.099 125.6 -999 169 -999
2006-04-12 06:14:01 51°13.607 2°56.099 125.6 -999 170 -999
2006-04-12 06:14:06 51°13.607 2°56.099 125.7 -999 169 -999
2006-04-12 06:14:11 51°13.607 2°56.099 125.7 -999 13 -999
2006-04-12 06:14:16 51°13.606 2°56.099 125.7 0.1 202 -999
2006-04-12 06:14:21 51°13.607 2°56.099 125.7 -999 190 -999
2006-04-12 06:14:26 51°13.607 2°56.099 125.7 -999 296 -999
2006-04-12 06:14:31 51°13.607 2°56.099 125.7 -999 192 -999
2006-04-12 06:14:36 51°13.607 2°56.099 125.7 -999 180 -999
2006-04-12 06:14:41 51°13.607 2°56.099 125.7 -999 257 -999
2006-04-12 06:14:46 51°13.607 2°56.099 125.7 0.1 204 -999
2006-04-12 06:14:51 51°13.607 2°56.099 125.7 -999 195 -999
2006-04-12 06:14:56 51°13.607 2°56.099 125.7 -999 212 -999
2006-04-12 06:15:01 51°13.607 2°56.099 125.7 -999 253 -999
2006-04-12 06:15:06 51°13.607 2°56.099 125.7 -999 197 -999
2006-04-12 06:15:11 51°13.607 2°56.099 125.7 -999 56 -999
2006-04-12 06:15:15 51°13.607 2°56.099 125.7 -999 26 -999
2006-04-12 06:15:21 51°13.607 2°56.099 125.7 -999 55 -999
2006-04-12 06:15:26 51°13.607 2°56.099 125.7 -999 166 -999
2006-04-12 06:15:31 51°13.607 2°56.099 125.7 -999 290 -999
2006-04-12 06:15:36 51°13.607 2°56.099 125.7 -999 1 -999
2006-04-12 06:15:41 51°13.607 2°56.099 125.7 -999 39 -999
2006-04-12 06:15:46 51°13.606 2°56.099 125.7 -999 93 -999
2006-04-12 06:15:51 51°13.606 2°56.099 125.7 -999 204 -999
2006-04-12 06:15:55 51°13.606 2°56.099 125.7 -999 196 -999
2006-04-12 06:16:01 51°13.606 2°56.099 125.7 -999 201 -999
2006-04-12 06:16:06 51°13.606 2°56.099 125.7 -999 221 -999
2006-04-12 06:16:11 51°13.606 2°56.099 125.7 -999 217 -999
2006-04-12 06:16:16 51°13.606 2°56.099 125.7 -999 177 -999
2006-04-12 06:16:21 51°13.606 2°56.099 125.7 -999 21 -999
2006-04-12 06:16:26 51°13.606 2°56.099 125.7 -999 14 -999
2006-04-12 06:16:31 51°13.605 2°56.099 125.7 0.1 207 -999
2006-04-12 06:16:35 51°13.605 2°56.099 125.7 0.1 206 -999
2006-04-12 06:16:41 51°13.605 2°56.099 125.7 -999 167 -999
2006-04-12 06:16:46 51°13.605 2°56.099 125.7 -999 31 -999
2006-04-12 06:16:51 51°13.605 2°56.099 125.7 -999 131 -999
2006-04-12 06:16:56 51°13.605 2°56.099 125.7 -999 203 -999
2006-04-12 06:17:01 51°13.605 2°56.099 125.7 0.1 207 -999
2006-04-12 06:17:06 51°13.605 2°56.099 125.7 -999 189 -999
2006-04-12 06:17:11 51°13.604 2°56.099 125.7 -999 26 -999
2006-04-12 06:17:15 51°13.604 2°56.099 125.7 -999 17 -999
2006-04-12 06:17:21 51°13.605 2°56.099 125.7 -999 29 -999
2006-04-12 06:17:26 51°13.605 2°56.099 125.7 -999 27 -999
2006-04-12 06:17:31 51°13.604 2°56.099 125.7 -999 81 -999
2006-04-12 06:17:36 51°13.604 2°56.099 125.7 -999 17 -999
2006-04-12 06:17:41 51°13.604 2°56.099 125.7 -999 40 -999
2006-04-12 06:17:46 51°13.604 2°56.099 125.7 -999 23 -999
2006-04-12 06:17:51 51°13.604 2°56.099 125.7 -999 238 -999
2006-04-12 06:17:55 51°13.604 2°56.099 125.7 -999 205 -999
2006-04-12 06:18:01 51°13.604 2°56.099 125.7 -999 209 -999
2006-04-12 06:18:06 51°13.605 2°56.099 125.7 -999 196 -999
2006-04-12 06:18:11 51°13.605 2°56.099 125.7 -999 24 -999
2006-04-12 06:18:16 51°13.605 2°56.099 125.7 -999 26 -999
2006-04-12 06:18:21 51°13.604 2°56.099 125.7 -999 214 -999
2006-04-12 06:18:26 51°13.604 2°56.099 125.7 -999 211 -999
2006-04-12 06:18:31 51°13.605 2°56.099 125.7 0.1 31 -999
2006-04-12 06:18:35 51°13.605 2°56.099 125.7 0.1 22 -999
2006-04-12 06:18:41 51°13.605 2°56.099 125.7 -999 31 -999
2006-04-12 06:18:46 51°13.605 2°56.099 125.7 -999 41 -999
2006-04-12 06:18:51 51°13.605 2°56.099 125.7 -999 23 -999
2006-04-12 06:18:56 51°13.605 2°56.099 125.7 -999 296 -999
2006-04-12 06:19:01 51°13.605 2°56.099 125.7 -999 188 -999
2006-04-12 06:19:06 51°13.605 2°56.099 125.7 -999 52 -999
2006-04-12 06:19:11 51°13.605 2°56.099 125.7 -999 201 -999
2006-04-12 06:19:16 51°13.605 2°56.099 125.7 -999 211 -999
2006-04-12 06:19:21 51°13.605 2°56.099 125.7 -999 255 -999
2006-04-12 06:19:26 51°13.605 2°56.099 125.7 -999 4 -999
2006-04-12 06:19:31 51°13.604 2°56.099 125.7 -999 282 -999
2006-04-12 06:19:35 51°13.604 2°56.099 125.7 -999 194 -999
2006-04-12 06:19:41 51°13.604 2°56.099 125.7 -999 57 -999
2006-04-12 06:19:46 51°13.604 2°56.099 125.7 -999 39 -999
2006-04-12 06:19:51 51°13.604 2°56.099 125.7 -999 37 -999
2006-04-12 06:19:55 51°13.604 2°56.099 125.7 -999 29 -999
2006-04-12 06:20:01 51°13.604 2°56.099 125.7 -999 35 -999
2006-04-12 06:20:06 51°13.604 2°56.099 125.7 -999 214 -999
2006-04-12 06:20:11 51°13.603 2°56.099 125.7 -999 209 -999
2006-04-12 06:20:16 51°13.603 2°56.099 125.7 -999 129 -999
2006-04-12 06:20:21 51°13.603 2°56.099 125.7 -999 34 -999
2006-04-12 06:20:26 51°13.603 2°56.098 125.7 -999 332 -999
2006-04-12 06:20:31 51°13.603 2°56.098 125.7 -999 205 -999
2006-04-12 06:20:36 51°13.603 2°56.098 125.7 -999 59 -999
2006-04-12 06:20:41 51°13.602 2°56.098 125.7 -999 40 -999
2006-04-12 06:20:46 51°13.602 2°56.098 125.7 -999 144 -999
2006-04-12 06:20:51 51°13.602 2°56.098 125.7 -999 188 -999
2006-04-12 06:20:55 51°13.601 2°56.097 125.7 -999 167 -999
2006-04-12 06:21:01 51°13.601 2°56.097 125.7 -999 197 -999
2006-04-12 06:21:06 51°13.601 2°56.097 125.7 -999 19 -999
2006-04-12 06:21:11 51°13.6 2°56.097 125.7 -999 70 -999
2006-04-12 06:21:16 51°13.6 2°56.097 125.7 -999 39 -999
2006-04-12 06:21:21 51°13.6 2°56.097 125.7 -999 29 -999
2006-04-12 06:21:26 51°13.6 2°56.097 125.7 -999 217 -999
2006-04-12 06:21:31 51°13.6 2°56.097 125.7 0.1 202 -999
2006-04-12 06:21:36 51°13.6 2°56.097 125.7 0.1 204 -999
2006-04-12 06:21:41 51°13.6 2°56.097 125.7 -999 197 -999
2006-04-12 06:21:46 51°13.6 2°56.097 125.7 -999 199 -999
2006-04-12 06:21:51 51°13.6 2°56.097 125.7 -999 199 -999
2006-04-12 06:21:56 51°13.6 2°56.097 125.7 -999 47 -999
2006-04-12 06:22:01 51°13.6 2°56.097 125.7 -999 21 -999
2006-04-12 06:22:06 51°13.6 2°56.097 125.8 -999 50 -999
2006-04-12 06:22:11 51°13.6 2°56.097 125.8 -999 67 -999
2006-04-12 06:22:16 51°13.6 2°56.097 125.8 -999 209 -999
2006-04-12 06:22:21 51°13.6 2°56.097 125.8 -999 220 -999
2006-04-12 06:22:26 51°13.6 2°56.097 125.8 -999 228 -999
2006-04-12 06:22:31 51°13.6 2°56.097 125.8 -999 32 -999
2006-04-12 06:22:35 51°13.6 2°56.097 125.8 -999 24 -999
2006-04-12 06:22:41 51°13.6 2°56.097 125.8 -999 284 -999
2006-04-12 06:22:46 51°13.6 2°56.097 125.8 -999 33 -999
2006-04-12 06:22:51 51°13.6 2°56.097 125.9 -999 32 -999
2006-04-12 06:22:56 51°13.6 2°56.097 125.9 -999 212 -999
2006-04-12 06:23:01 51°13.6 2°56.097 125.9 -999 177 -999
2006-04-12 06:23:06 51°13.6 2°56.097 126 -999 30 -999
2006-04-12 06:23:11 51°13.6 2°56.097 126.1 -999 17 -999
2006-04-12 06:23:15 51°13.6 2°56.097 126.2 -999 29 -999
2006-04-12 06:23:21 51°13.6 2°56.097 126.2 -999 16 -999
2006-04-12 06:23:26 51°13.6 2°56.097 126.4 -999 11 -999
2006-04-12 06:23:31 51°13.6 2°56.097 126.6 -999 139 -999
2006-04-12 06:23:35 51°13.6 2°56.097 126.6 -999 183 -999
2006-04-12 06:23:41 51°13.6 2°56.097 126.2 -999 198 -999
2006-04-12 06:23:46 51°13.6 2°56.097 125.6 0.1 198 -999
2006-04-12 06:23:51 51°13.6 2°56.097 125 -999 183 -999
2006-04-12 06:23:56 51°13.6 2°56.097 124.4 -999 188 -999
2006-04-12 06:24:01 51°13.6 2°56.097 123.8 0.1 184 -999
2006-04-12 06:24:06 51°13.6 2°56.097 123.1 -999 174 -999
2006-04-12 06:24:11 51°13.6 2°56.097 122.3 -999 192 -999
2006-04-12 06:24:16 51°13.6 2°56.097 121.5 0.1 196 -999
2006-04-12 06:24:21 51°13.6 2°56.097 120.8 0.1 188 -999
2006-04-12 06:24:26 51°13.6 2°56.097 120.1 0.1 191 -999
2006-04-12 06:24:31 51°13.6 2°56.097 119.3 0.1 194 -999
2006-04-12 06:24:36 51°13.6 2°56.097 118.5 0.1 193 -999
2006-04-12 06:24:41 51°13.6 2°56.097 117.8 0.1 192 -999
2006-04-12 06:24:46 51°13.6 2°56.097 116.9 0.1 197 -999
2006-04-12 06:24:51 51°13.599 2°56.097 116.1 0.1 196 -999
2006-04-12 06:24:56 51°13.599 2°56.097 115.1 0.1 195 -999
2006-04-12 06:25:01 51°13.599 2°56.097 114.1 0.1 194 -999
2006-04-12 06:25:06 51°13.599 2°56.097 113.2 0.1 190 -999
2006-04-12 06:25:11 51°13.599 2°56.097 112.3 0.1 195 -999
2006-04-12 06:25:16 51°13.599 2°56.097 111.4 0.2 199 -999
2006-04-12 06:25:21 51°13.599 2°56.097 110.2 0.1 264 -999
2006-04-12 06:25:26 51°13.599 2°56.096 109.3 0.4 282 -999
2006-04-12 06:25:31 51°13.599 2°56.094 108.8 0.7 284 -999
2006-04-12 06:25:36 51°13.599 2°56.093 108.7 0.9 284 -999
2006-04-12 06:25:41 51°13.6 2°56.09 108.6 1.1 286 -999
2006-04-12 06:25:46 51°13.6 2°56.087 108.6 1.3 285 -999
2006-04-12 06:25:51 51°13.601 2°56.084 108.8 1.5 285 -999
2006-04-12 06:25:55 51°13.601 2°56.081 109.2 1.7 286 -999
2006-04-12 06:26:01 51°13.602 2°56.076 109.6 1.9 286 -999
2006-04-12 06:26:06 51°13.603 2°56.071 110.3 2.2 287 -999
2006-04-12 06:26:11 51°13.605 2°56.066 110.6 2.3 288 -999
2006-04-12 06:26:16 51°13.606 2°56.061 110.8 2.5 289 -999
2006-04-12 06:26:21 51°13.607 2°56.055 110.9 2.7 286 -999
2006-04-12 06:26:26 51°13.608 2°56.049 111 2.8 287 -999
2006-04-12 06:26:31 51°13.609 2°56.042 111 3.1 286 -999
2006-04-12 06:26:35 51°13.61 2°56.037 111 3.3 286 -999
2006-04-12 06:26:41 51°13.612 2°56.028 111.1 3.5 286 -999
2006-04-12 06:26:46 51°13.613 2°56.02 111.4 3.6 286 -999
2006-04-12 06:26:51 51°13.615 2°56.012 111.9 3.7 285 -999
2006-04-12 06:26:56 51°13.616 2°56.004 113.3 3.8 286 -999
2006-04-12 06:27:01 51°13.618 2°55.996 114.9 3.9 288 -999
2006-04-12 06:27:06 51°13.62 2°55.987 116.8 4.1 290 -999
2006-04-12 06:27:11 51°13.622 2°55.978 118.4 4.2 292 -999
2006-04-12 06:27:16 51°13.625 2°55.97 120.2 4.4 294 -999
2006-04-12 06:27:21 51°13.628 2°55.961 121.9 4.5 296 -999
2006-04-12 06:27:26 51°13.631 2°55.952 123.1 4.6 298 -999
2006-04-12 06:27:31 51°13.634 2°55.943 124.6 4.6 299 -999
2006-04-12 06:27:36 51°13.637 2°55.934 125.5 4.7 300 -999
2006-04-12 06:27:41 51°13.641 2°55.925 126.6 4.8 301 -999
2006-04-12 06:27:46 51°13.644 2°55.916 127.1 4.8 302 -999
2006-04-12 06:27:51 51°13.648 2°55.907 127.7 4.9 303 -999
2006-04-12 06:27:55 51°13.651 2°55.9 128 4.9 304 -999
2006-04-12 06:28:01 51°13.656 2°55.889 128.4 5 304 -999
2006-04-12 06:28:06 51°13.66 2°55.88 128.9 5 305 -999
2006-04-12 06:28:11 51°13.664 2°55.871 129.1 5 304 -999
2006-04-12 06:28:16 51°13.668 2°55.862 129.1 5 304 -999
2006-04-12 06:28:21 51°13.672 2°55.852 129.1 5.1 305 -999
2006-04-12 06:28:26 51°13.676 2°55.843 128.8 5 305 -999
2006-04-12 06:28:31 51°13.68 2°55.835 128.5 4.7 304 -999
2006-04-12 06:28:36 51°13.683 2°55.827 128.2 4.5 304 -999
2006-04-12 06:28:41 51°13.686 2°55.819 127.5 4.3 303 -999
2006-04-12 06:28:46 51°13.689 2°55.812 126.9 4.2 303 4.8
2006-04-12 06:28:51 51°13.692 2°55.804 125.7 4.1 302 -999
2006-04-12 06:28:56 51°13.695 2°55.796 125.1 4.1 302 -999
2006-04-12 06:29:01 51°13.698 2°55.789 124.3 4 301 -999
2006-04-12 06:29:06 51°13.701 2°55.781 123.8 4 300 -999
2006-04-12 06:29:11 51°13.703 2°55.774 122.9 3.8 299 -999
2006-04-12 06:29:15 51°13.705 2°55.769 122.4 3.6 299 -999
2006-04-12 06:29:21 51°13.708 2°55.761 121.9 3.4 298 -999
2006-04-12 06:29:26 51°13.71 2°55.755 121.7 3.1 298 -999
2006-04-12 06:29:31 51°13.712 2°55.75 121.3 2.7 298 -999
2006-04-12 06:29:36 51°13.713 2°55.746 120.8 2.3 297 -999
2006-04-12 06:29:41 51°13.714 2°55.742 119.3 1.8 297 4.9
2006-04-12 06:29:46 51°13.715 2°55.74 117.8 1.3 297 -999
2006-04-12 06:29:51 51°13.715 2°55.738 115.4 0.9 297 4.9
2006-04-12 06:29:55 51°13.716 2°55.738 112.4 0.6 304 -999
2006-04-12 06:30:01 51°13.716 2°55.737 108.9 0.2 333 -999
2006-04-12 06:30:06 51°13.716 2°55.738 105.2 0.2 62 -999
2006-04-12 06:30:11 51°13.716 2°55.739 100.9 0.5 81 -999
2006-04-12 06:30:16 51°13.716 2°55.741 96.4 0.7 80 -999
2006-04-12 06:30:21 51°13.716 2°55.744 90.3 1 78 -999
2006-04-12 06:30:26 51°13.717 2°55.746 86.2 1.2 77 -999
2006-04-12 06:30:31 51°13.717 2°55.748 80.1 1 70 -999
2006-04-12 06:30:35 51°13.718 2°55.75 76.9 1 70 5.1
2006-04-12 06:30:41 51°13.718 2°55.751 74 0.7 68 5.1
2006-04-12 06:30:46 51°13.719 2°55.752 71.1 0.5 67 -999
2006-04-12 06:30:51 51°13.719 2°55.752 68.1 0.2 74 -999
2006-04-12 06:30:56 51°13.718 2°55.752 65.3 0.2 228 -999
2006-04-12 06:31:01 51°13.717 2°55.75 62.9 0.7 234 -999
2006-04-12 06:31:06 51°13.716 2°55.748 61.5 1.1 237 -999
2006-04-12 06:31:11 51°13.714 2°55.744 59.8 1.7 235 -999
2006-04-12 06:31:15 51°13.713 2°55.742 58.6 1.9 234 -999
2006-04-12 06:31:21 51°13.711 2°55.738 57.6 1.9 230 -999
2006-04-12 06:31:26 51°13.71 2°55.735 56.6 1.7 230 -999
2006-04-12 06:31:31 51°13.708 2°55.733 55.8 1.4 227 -999
2006-04-12 06:31:35 51°13.708 2°55.731 54 1.2 227 -999
2006-04-12 06:31:41 51°13.707 2°55.73 52.3 0.8 219 -999
2006-04-12 06:31:46 51°13.707 2°55.73 49.8 0.3 213 -999
2006-04-12 06:31:51 51°13.707 2°55.731 46.5 0.2 68 -999
2006-04-12 06:31:55 51°13.708 2°55.731 42.3 0.5 37 -999
2006-04-12 06:32:01 51°13.709 2°55.733 36.7 0.9 37 -999
2006-04-12 06:32:06 51°13.711 2°55.734 32.8 1.2 27 -999
2006-04-12 06:32:11 51°13.713 2°55.735 27.6 1.5 22 -999
2006-04-12 06:32:15 51°13.715 2°55.736 22.1 1.6 17 -999
2006-04-12 06:32:21 51°13.718 2°55.737 15 1.9 9 -999
2006-04-12 06:32:26 51°13.721 2°55.737 10.2 2.1 4 -999
2006-04-12 06:32:31 51°13.725 2°55.736 3.9 2.4 356 -999
2006-04-12 06:32:36 51°13.728 2°55.735 357.6 2.5 352 -999
2006-04-12 06:32:41 51°13.732 2°55.733 351.1 2.7 342 -999
2006-04-12 06:32:46 51°13.736 2°55.73 344.4 3 338 -999
2006-04-12 06:32:51 51°13.74 2°55.726 336.7 3.5 329 -999
2006-04-12 06:32:56 51°13.745 2°55.721 333.4 3.9 329 -999
2006-04-12 06:33:01 51°13.75 2°55.716 331 4.3 325 9.3
2006-04-12 06:33:05 51°13.754 2°55.711 329.8 4.7 326 8.7
2006-04-12 06:33:11 51°13.761 2°55.703 329.6 5 325 8.5
2006-04-12 06:33:15 51°13.766 2°55.698 329.9 5.3 326 8.7
2006-04-12 06:33:19 51°13.771 2°55.692 330.3 5.6 325 8.6
2006-04-12 06:33:25 51°13.779 2°55.684 330.8 5.8 326 8.4
2006-04-12 06:33:31 51°13.788 2°55.675 331 6.1 326 8.8
2006-04-12 06:33:35 51°13.794 2°55.669 331.2 6.3 327 -999
2006-04-12 06:33:41 51°13.803 2°55.66 331.8 6.5 328 -999
2006-04-12 06:33:46 51°13.811 2°55.653 333.1 6.6 329 8.9
2006-04-12 06:33:50 51°13.818 2°55.647 334.7 6.8 331 8.9
2006-04-12 06:33:55 51°13.826 2°55.64 336 6.8 332 8.8
2006-04-12 06:33:59 51°13.833 2°55.635 337.7 6.9 334 8.9
2006-04-12 06:34:05 51°13.844 2°55.627 338.5 7 334 8.8
2006-04-12 06:34:11 51°13.855 2°55.619 338.9 7.1 335 -999
2006-04-12 06:34:15 51°13.862 2°55.613 339 7.1 335 8.8
2006-04-12 06:34:21 51°13.873 2°55.605 339.4 7.2 335 8.9
2006-04-12 06:34:25 51°13.88 2°55.6 339.6 7.3 335 8.8
2006-04-12 06:34:31 51°13.891 2°55.592 339.9 7.3 336 8.8
2006-04-12 06:34:35 51°13.898 2°55.587 340.4 7.3 337 -999
2006-04-12 06:34:41 51°13.909 2°55.579 340.5 7.3 336 8.7
2006-04-12 06:34:45 51°13.917 2°55.574 340.5 7.3 337 8.7
2006-04-12 06:34:51 51°13.928 2°55.566 341 7.4 337 8.8
2006-04-12 06:34:55 51°13.935 2°55.561 341 7.4 336 8.7
2006-04-12 06:34:59 51°13.943 2°55.555 340.4 7.4 336 8.7
2006-04-12 06:35:06 51°13.956 2°55.547 340.4 7.4 337 8.7
2006-04-12 06:35:11 51°13.966 2°55.54 340.8 7.4 337 8.8
2006-04-12 06:35:15 51°13.973 2°55.535 340.9 7.4 337 8.8
2006-04-12 06:35:21 51°13.985 2°55.527 340.9 7.5 336 8.9
2006-04-12 06:35:26 51°13.994 2°55.52 340.5 7.5 336 -999
2006-04-12 06:35:31 51°14.004 2°55.514 340.3 7.5 336 8.8
2006-04-12 06:35:35 51°14.011 2°55.508 340.2 7.5 336 8.9
2006-04-12 06:35:39 51°14.019 2°55.503 340.2 7.5 336 8.8
2006-04-12 06:35:45 51°14.03 2°55.495 340.1 7.5 335 8.8
2006-04-12 06:35:50 51°14.04 2°55.488 339.6 7.5 336 8.9
2006-04-12 06:35:55 51°14.049 2°55.481 339.6 7.5 336 8.8
2006-04-12 06:36:01 51°14.061 2°55.473 339.7 7.5 336 8.8
2006-04-12 06:36:05 51°14.068 2°55.467 339.8 7.5 336 8.9
2006-04-12 06:36:11 51°14.079 2°55.459 339.6 7.5 336 8.9
2006-04-12 06:36:15 51°14.087 2°55.454 339.5 7.5 335 8.9
2006-04-12 06:36:21 51°14.098 2°55.445 339.2 7.4 335 -999
2006-04-12 06:36:26 51°14.107 2°55.438 338.9 7.4 334 -999
2006-04-12 06:36:31 51°14.117 2°55.431 338.5 7.4 334 -999
2006-04-12 06:36:35 51°14.124 2°55.425 337.6 7.4 333 8.8
2006-04-12 06:36:41 51°14.135 2°55.415 336.7 7.3 332 -999
2006-04-12 06:36:46 51°14.144 2°55.407 335.6 7.3 331 -999
2006-04-12 06:36:51 51°14.152 2°55.399 334.5 7.4 330 -999
2006-04-12 06:36:55 51°14.159 2°55.392 333.1 7.3 329 8.8
2006-04-12 06:37:01 51°14.17 2°55.382 331.6 7.4 327 8.8
2006-04-12 06:37:06 51°14.178 2°55.373 330.8 7.4 327 -999
2006-04-12 06:37:11 51°14.187 2°55.363 330.2 7.4 326 8.8
2006-04-12 06:37:15 51°14.193 2°55.356 329.3 7.6 325 8.8
2006-04-12 06:37:21 51°14.204 2°55.343 328 7.6 325 -999
2006-04-12 06:37:26 51°14.213 2°55.332 326.6 8.1 322 8.8
2006-04-12 06:37:31 51°14.222 2°55.32 325.6 8.3 321 -999
2006-04-12 06:37:36 51°14.231 2°55.308 325 8.4 320 8.8
2006-04-12 06:37:41 51°14.239 2°55.296 323.5 8.5 318 8.8
2006-04-12 06:37:46 51°14.248 2°55.283 322 8.6 317 8.8
2006-04-12 06:37:51 51°14.256 2°55.269 320.3 8.6 316 -999
2006-04-12 06:37:55 51°14.263 2°55.258 318.9 8.7 314 -999
2006-04-12 06:38:01 51°14.273 2°55.241 317.1 8.8 312 -999
2006-04-12 06:38:06 51°14.281 2°55.226 316.1 8.9 312 8.7
2006-04-12 06:38:11 51°14.289 2°55.211 315.7 9 311 -999
2006-04-12 06:38:16 51°14.297 2°55.195 315.2 9.1 311 -999
2006-04-12 06:38:21 51°14.306 2°55.18 314.5 9.1 310 -999
2006-04-12 06:38:26 51°14.314 2°55.164 314 9.2 310 -999
2006-04-12 06:38:31 51°14.322 2°55.149 314.1 9.3 311 9.5
2006-04-12 06:38:36 51°14.331 2°55.134 315.6 9.3 312 -999
2006-04-12 06:38:41 51°14.34 2°55.119 316.9 9.3 314 -999
2006-04-12 06:38:46 51°14.349 2°55.104 317.3 9.4 314 -999
2006-04-12 06:38:51 51°14.358 2°55.089 317.3 9.5 314 -999
2006-04-12 06:38:55 51°14.366 2°55.077 318.4 9.5 315 8.8
2006-04-12 06:39:01 51°14.378 2°55.06 319.7 9.6 317 9.3
2006-04-12 06:39:05 51°14.386 2°55.048 321.1 9.7 318 9
2006-04-12 06:39:11 51°14.397 2°55.031 322.8 9.7 317 8.9
2006-04-12 06:39:15 51°14.405 2°55.018 323.4 9.7 317 8.9
2006-04-12 06:39:21 51°14.417 2°54.999 323.1 9.9 314 8.9
2006-04-12 06:39:25 51°14.425 2°54.987 323.4 9.9 316 8.9
2006-04-12 06:39:30 51°14.435 2°54.973 325.6 9.9 319 8.8
2006-04-12 06:39:35 51°14.446 2°54.959 328.7 9.8 321 8.8
2006-04-12 06:39:39 51°14.455 2°54.949 332 9.8 323 8.9
2006-04-12 06:39:45 51°14.468 2°54.934 334.5 10 325 8.6
2006-04-12 06:39:51 51°14.483 2°54.919 336.5 10.2 326 8.6
2006-04-12 06:39:55 51°14.493 2°54.909 337.5 10.2 326 8.4
2006-04-12 06:40:01 51°14.508 2°54.897 338.5 10.5 331 8.3
2006-04-12 06:40:05 51°14.519 2°54.889 341.2 10.6 335 8.3
2006-04-12 06:40:11 51°14.536 2°54.88 345.2 10.7 339 8.2
2006-04-12 06:40:16 51°14.55 2°54.873 349.2 10.7 339 8.2
2006-04-12 06:40:21 51°14.565 2°54.867 351.4 11 344 8.1
2006-04-12 06:40:25 51°14.577 2°54.862 353.2 11.1 345 8.1
2006-04-12 06:40:31 51°14.595 2°54.854 353.5 11.1 345 8.2
2006-04-12 06:40:36 51°14.61 2°54.847 353.5 11.1 345 8.1
2006-04-12 06:40:41 51°14.626 2°54.839 352.9 11.4 343 8
2006-04-12 06:40:45 51°14.638 2°54.833 352 11.6 343 8.1
2006-04-12 06:40:50 51°14.653 2°54.825 351.5 11.7 342 8
2006-04-12 06:40:55 51°14.668 2°54.817 350.9 11.7 342 8.2
2006-04-12 06:40:59 51°14.681 2°54.811 350.8 11.8 342 8
2006-04-12 06:41:05 51°14.7 2°54.801 351.2 11.9 342 8.2
2006-04-12 06:41:11 51°14.718 2°54.791 350.8 11.9 342 8
2006-04-12 06:41:15 51°14.731 2°54.785 350.8 11.9 342 7.9
2006-04-12 06:41:21 51°14.75 2°54.775 350.5 11.9 342 8
2006-04-12 06:41:25 51°14.763 2°54.768 350.5 11.9 343 8
2006-04-12 06:41:30 51°14.778 2°54.761 350.5 12 343 8
2006-04-12 06:41:35 51°14.794 2°54.753 351 12 343 8.1
2006-04-12 06:41:41 51°14.813 2°54.743 351.3 12 344 7.8
2006-04-12 06:41:45 51°14.826 2°54.737 351.8 12 344 8.1
2006-04-12 06:41:51 51°14.845 2°54.729 352.3 12 345 8
2006-04-12 06:41:55 51°14.858 2°54.723 352.7 12 345 7.9
2006-04-12 06:42:00 51°14.874 2°54.716 352.7 12 343 7.8
2006-04-12 06:42:05 51°14.89 2°54.708 351.9 12 343 7.9
2006-04-12 06:42:11 51°14.91 2°54.698 351.1 12.1 343 7.7
2006-04-12 06:42:15 51°14.922 2°54.691 350.7 12.1 343 7.6
2006-04-12 06:42:21 51°14.941 2°54.682 350.7 12.1 343 7.8
2006-04-12 06:42:25 51°14.954 2°54.675 350.5 12.1 342 7.7
2006-04-12 06:42:31 51°14.973 2°54.667 350.5 12.1 344 7.7
2006-04-12 06:42:36 51°14.99 2°54.659 351.2 12.1 344 7.6
2006-04-12 06:42:41 51°15.005 2°54.651 351.2 12.1 343 7.6
2006-04-12 06:42:45 51°15.018 2°54.645 351.4 12 344 7.6
2006-04-12 06:42:51 51°15.038 2°54.637 352 12 345 7.3
2006-04-12 06:42:56 51°15.053 2°54.629 352.2 11.9 344 7.3
2006-04-12 06:43:01 51°15.069 2°54.622 351.5 11.9 344 7.2
2006-04-12 06:43:05 51°15.081 2°54.617 352 11.8 345 7.1
2006-04-12 06:43:11 51°15.101 2°54.61 352.7 11.8 346 7
2006-04-12 06:43:15 51°15.114 2°54.605 354.5 11.8 348 7
2006-04-12 06:43:21 51°15.133 2°54.601 355.8 11.8 351 5.3
2006-04-12 06:43:25 51°15.146 2°54.599 358 11.7 353 7.1
2006-04-12 06:43:31 51°15.166 2°54.596 0.7 11.7 355 7.2
2006-04-12 06:43:35 51°15.179 2°54.595 2.8 11.7 358 7.2
2006-04-12 06:43:41 51°15.198 2°54.593 4.4 11.7 357 5.3
2006-04-12 06:43:46 51°15.214 2°54.593 5.3 11.8 359 7.3
2006-04-12 06:43:51 51°15.231 2°54.593 5.8 11.7 359 7.1
2006-04-12 06:43:55 51°15.243 2°54.591 7 11.8 358 7.3
2006-04-12 06:44:01 51°15.263 2°54.59 5.2 11.6 358 7.4
2006-04-12 06:44:06 51°15.279 2°54.587 5.5 11.7 355 5.3
2006-04-12 06:44:11 51°15.296 2°54.584 5 11.9 353 7.5
2006-04-12 06:44:15 51°15.309 2°54.582 2.9 11.9 354 7.6
2006-04-12 06:44:19 51°15.322 2°54.578 2.2 11.9 351 7.7
2006-04-12 06:44:25 51°15.341 2°54.574 1 11.9 351 7.6
2006-04-12 06:44:31 51°15.361 2°54.568 0.3 11.9 350 7.7
2006-04-12 06:44:35 51°15.374 2°54.564 359.3 11.9 350 7.7
2006-04-12 06:44:41 51°15.393 2°54.559 359.8 12 350 7.8
2006-04-12 06:44:45 51°15.407 2°54.556 -999 11.9 353 7.8
2006-04-12 06:44:51 51°15.427 2°54.551 1.3 12.1 352 7.8
2006-04-12 06:44:55 51°15.439 2°54.55 1.7 11.7 355 8
2006-04-12 06:44:59 51°15.452 2°54.549 3.3 11.9 356 8
2006-04-12 06:45:05 51°15.472 2°54.546 5 11.9 355 8
2006-04-12 06:45:10 51°15.489 2°54.544 4.7 12 354 7.9
2006-04-12 06:45:15 51°15.505 2°54.54 4.3 12 353 8.1
2006-04-12 06:45:21 51°15.525 2°54.536 3 11.9 351 8.1
2006-04-12 06:45:25 51°15.538 2°54.532 2.2 12 351 8.3
2006-04-12 06:45:30 51°15.555 2°54.527 0.9 12 350 8.3
2006-04-12 06:45:35 51°15.571 2°54.522 -999 12.1 347 8.4
2006-04-12 06:45:41 51°15.591 2°54.514 358.4 12.1 347 8.5
2006-04-12 06:45:45 51°15.603 2°54.51 357.6 12.1 347 8.4
2006-04-12 06:45:51 51°15.623 2°54.503 357.8 12 349 8.5
2006-04-12 06:45:55 51°15.636 2°54.499 358.6 12 349 8.6
2006-04-12 06:46:01 51°15.656 2°54.494 359 12 351 8.5
2006-04-12 06:46:05 51°15.669 2°54.492 1 11.9 353 8.7
2006-04-12 06:46:10 51°15.686 2°54.488 2 11.9 352 8.7
2006-04-12 06:46:15 51°15.702 2°54.485 2.6 11.9 355 8.8
2006-04-12 06:46:20 51°15.718 2°54.482 3.8 11.9 354 8.8
2006-04-12 06:46:25 51°15.734 2°54.481 4.1 11.9 356 8.8
2006-04-12 06:46:31 51°15.753 2°54.479 4.8 11.7 357 9
2006-04-12 06:46:35 51°15.767 2°54.478 5.9 11.8 358 8.7
2006-04-12 06:46:39 51°15.78 2°54.477 7.2 11.7 359 8.7
2006-04-12 06:46:46 51°15.803 2°54.476 7.4 11.8 358 8.9
2006-04-12 06:46:51 51°15.819 2°54.475 7.2 11.7 358 8.9
2006-04-12 06:46:55 51°15.832 2°54.474 6.7 11.7 358 9
2006-04-12 06:46:59 51°15.845 2°54.474 7.1 11.8 359 9
2006-04-12 06:47:05 51°15.864 2°54.472 7.2 11.8 356 9.2
2006-04-12 06:47:11 51°15.884 2°54.471 6.5 11.7 -999 9.3
2006-04-12 06:47:15 51°15.897 2°54.471 7.5 11.8 358 9.3
2006-04-12 06:47:19 51°15.911 2°54.471 6.9 11.6 359 9.5
2006-04-12 06:47:25 51°15.929 2°54.47 7.1 11.7 358 9.2
2006-04-12 06:47:30 51°15.946 2°54.469 7.4 11.8 359 9.4
2006-04-12 06:47:35 51°15.962 2°54.468 7.1 11.8 357 9.4
2006-04-12 06:47:41 51°15.982 2°54.467 6.1 11.7 358 9.5
2006-04-12 06:47:45 51°15.995 2°54.465 6.5 11.8 357 9.6
2006-04-12 06:47:50 51°16.011 2°54.464 5.8 11.8 357 9.8
2006-04-12 06:47:55 51°16.027 2°54.464 5.9 11.7 358 9.6
2006-04-12 06:48:01 51°16.046 2°54.462 6.3 11.5 358 9.8
2006-04-12 06:48:05 51°16.058 2°54.462 6.7 11.1 358 9.7
2006-04-12 06:48:11 51°16.075 2°54.461 7.2 10 359 9.8
2006-04-12 06:48:15 51°16.085 2°54.461 7.5 9.8 358 9.8
2006-04-12 06:48:19 51°16.095 2°54.459 7.3 8.6 357 10
2006-04-12 06:48:26 51°16.109 2°54.458 6.6 7.9 356 10
2006-04-12 06:48:31 51°16.119 2°54.457 6 7.1 356 10.2
2006-04-12 06:48:35 51°16.126 2°54.455 5.3 6.6 352 10.1
2006-04-12 06:48:41 51°16.136 2°54.453 3.8 6.1 354 10.3
2006-04-12 06:48:46 51°16.143 2°54.452 3.2 5.7 352 10.1
2006-04-12 06:48:51 51°16.15 2°54.45 3.1 5.2 352 10.1
2006-04-12 06:48:55 51°16.155 2°54.449 3.2 4.9 352 10.1
2006-04-12 06:48:59 51°16.161 2°54.447 2.7 4.6 350 10.2
2006-04-12 06:49:05 51°16.167 2°54.445 2.3 4.3 349 10.3
2006-04-12 06:49:11 51°16.173 2°54.443 1.6 4 347 10.3
2006-04-12 06:49:15 51°16.177 2°54.441 0.3 3.7 345 10.2
2006-04-12 06:49:19 51°16.181 2°54.44 359.4 3.3 345 10.3
2006-04-12 06:49:25 51°16.185 2°54.437 358.7 3 343 10.3
2006-04-12 06:49:31 51°16.189 2°54.435 357.7 2.5 341 10.1
2006-04-12 06:49:35 51°16.191 2°54.434 357.4 2.3 340 10.1
2006-04-12 06:49:39 51°16.193 2°54.432 356.7 2 335 10.1
2006-04-12 06:49:45 51°16.196 2°54.43 356.5 1.7 330 10.2
2006-04-12 06:49:50 51°16.198 2°54.428 356.3 1.6 332 10.2
2006-04-12 06:49:55 51°16.199 2°54.427 355.9 1.6 329 10.2
2006-04-12 06:50:01 51°16.201 2°54.426 355.9 1.2 326 10.1
2006-04-12 06:50:05 51°16.202 2°54.424 356.3 1.2 327 10.1
2006-04-12 06:50:11 51°16.204 2°54.423 357.2 1 326 10.1
2006-04-12 06:50:16 51°16.205 2°54.422 358.3 1 324 10.2
2006-04-12 06:50:21 51°16.205 2°54.42 358.5 0.9 318 10.2
2006-04-12 06:50:25 51°16.206 2°54.42 358.2 0.8 317 10.3
2006-04-12 06:50:30 51°16.207 2°54.418 357.8 0.8 319 10.4
2006-04-12 06:50:35 51°16.208 2°54.417 357.6 0.7 317 10.4
2006-04-12 06:50:41 51°16.209 2°54.416 356.9 0.7 316 10.4
2006-04-12 06:50:45 51°16.209 2°54.415 356.7 0.7 314 10.4
2006-04-12 06:50:51 51°16.21 2°54.414 356.5 0.6 313 10.5
2006-04-12 06:50:55 51°16.21 2°54.413 356.1 0.6 313 10.5
2006-04-12 06:51:00 51°16.211 2°54.411 355.3 0.7 297 10.4
2006-04-12 06:51:05 51°16.211 2°54.41 354.7 0.6 300 10.3
2006-04-12 06:51:11 51°16.211 2°54.409 353.9 0.5 311 10.4
2006-04-12 06:51:15 51°16.212 2°54.408 353.3 0.5 311 10.3
2006-04-12 06:51:21 51°16.212 2°54.407 352.8 0.6 285 10.2
2006-04-12 06:51:25 51°16.212 2°54.406 353.4 0.6 282 10.2
2006-04-12 06:51:31 51°16.213 2°54.405 353.4 0.5 279 10.2
2006-04-12 06:51:35 51°16.212 2°54.404 353.2 0.5 278 10.3
2006-04-12 06:51:39 51°16.213 2°54.403 353.2 0.6 271 10.3
2006-04-12 06:51:45 51°16.213 2°54.401 353.2 0.5 278 10.3
2006-04-12 06:51:51 51°16.213 2°54.4 353 0.5 282 10.4
2006-04-12 06:51:56 51°16.214 2°54.399 352.7 0.5 282 10.4
2006-04-12 06:52:01 51°16.215 2°54.397 352.1 0.8 305 10.3
2006-04-12 06:52:05 51°16.215 2°54.396 351.3 0.8 313 10.4
2006-04-12 06:52:11 51°16.216 2°54.394 350.2 0.9 304 10.3
2006-04-12 06:52:16 51°16.218 2°54.392 349.1 0.9 304 10.2
2006-04-12 06:52:21 51°16.219 2°54.389 347.6 1.4 313 10.3
2006-04-12 06:52:25 51°16.22 2°54.388 345.5 1.5 314 10.3
2006-04-12 06:52:31 51°16.222 2°54.385 343.7 1.5 317 10.3
2006-04-12 06:52:35 51°16.223 2°54.382 341.8 1.5 317 10.3
2006-04-12 06:52:41 51°16.225 2°54.379 339.7 1.8 308 10.3
2006-04-12 06:52:45 51°16.226 2°54.376 337.5 2 307 10.4
2006-04-12 06:52:50 51°16.228 2°54.372 334.9 2 303 10.3
2006-04-12 06:52:55 51°16.229 2°54.368 332.4 2 300 10.4
2006-04-12 06:52:59 51°16.23 2°54.364 329.5 2.1 299 10.4
2006-04-12 06:53:05 51°16.232 2°54.36 327.8 2.1 295 10.4
2006-04-12 06:53:11 51°16.233 2°54.354 325.2 2.1 293 10.4
2006-04-12 06:53:15 51°16.234 2°54.351 323.2 2.1 293 10.4
2006-04-12 06:53:20 51°16.235 2°54.346 321 2.2 286 10.4
2006-04-12 06:53:25 51°16.236 2°54.341 318.6 2.3 285 10.4
2006-04-12 06:53:31 51°16.236 2°54.335 316.4 2.3 283 10.4
2006-04-12 06:53:35 51°16.237 2°54.331 313.8 2.3 283 10.4
2006-04-12 06:53:41 51°16.237 2°54.324 311 2.5 277 10.4
2006-04-12 06:53:45 51°16.237 2°54.32 308.1 2.6 274 10.3
2006-04-12 06:53:51 51°16.237 2°54.312 305.4 2.6 272 10.4
2006-04-12 06:53:56 51°16.237 2°54.307 302.6 2.6 272 10.3
2006-04-12 06:54:01 51°16.237 2°54.3 299.2 2.7 266 10.3
2006-04-12 06:54:05 51°16.236 2°54.296 296.1 2.7 263 10.3
2006-04-12 06:54:11 51°16.236 2°54.288 292.9 2.8 260 10.3
2006-04-12 06:54:15 51°16.235 2°54.283 289.5 2.9 259 10.3
2006-04-12 06:54:21 51°16.234 2°54.275 286 2.9 255 10.2
2006-04-12 06:54:25 51°16.233 2°54.27 282.6 3 251 10.2
2006-04-12 06:54:30 51°16.231 2°54.264 279.3 3 249 10.3
2006-04-12 06:54:35 51°16.229 2°54.258 275.8 3 246 10.2
2006-04-12 06:54:39 51°16.227 2°54.254 271.5 3 240 10.2
2006-04-12 06:54:45 51°16.225 2°54.246 267.5 3.1 238 10.1
2006-04-12 06:54:51 51°16.222 2°54.24 263.6 3.1 240 10.2
2006-04-12 06:54:55 51°16.22 2°54.235 260.5 3.2 234 10.2
2006-04-12 06:55:01 51°16.216 2°54.227 256.5 3.2 232 10.2
2006-04-12 06:55:05 51°16.214 2°54.223 253 3.2 230 10.2
2006-04-12 06:55:11 51°16.21 2°54.217 249.6 3.5 227 10.3
2006-04-12 06:55:15 51°16.207 2°54.213 246.3 3.4 224 10.3
2006-04-12 06:55:21 51°16.203 2°54.207 243.6 3.4 221 10.2
2006-04-12 06:55:26 51°16.2 2°54.202 240.5 3.4 224 10.2
2006-04-12 06:55:31 51°16.196 2°54.197 238 3.5 222 10.2
2006-04-12 06:55:35 51°16.193 2°54.193 236.4 3.5 221 10.3
2006-04-12 06:55:39 51°16.19 2°54.189 234.4 3.6 219 10.5
2006-04-12 06:55:46 51°16.185 2°54.182 232.3 3.7 218 10.5
2006-04-12 06:55:51 51°16.18 2°54.177 230.3 3.7 216 10.4
2006-04-12 06:55:55 51°16.177 2°54.173 228.2 3.7 217 10.4
2006-04-12 06:55:59 51°16.173 2°54.169 226.3 3.7 214 10.3
2006-04-12 06:56:05 51°16.169 2°54.164 223.7 3.8 214 10.2
2006-04-12 06:56:11 51°16.163 2°54.16 220.2 3.7 211 10.1
2006-04-12 06:56:15 51°16.16 2°54.156 217.1 3.8 211 10.1
2006-04-12 06:56:21 51°16.154 2°54.151 214.9 3.8 210 10.2
2006-04-12 06:56:25 51°16.15 2°54.148 212.7 3.9 207 10.4
2006-04-12 06:56:31 51°16.144 2°54.143 210.4 3.9 207 10.4
2006-04-12 06:56:35 51°16.14 2°54.14 207.8 4 205 10.5
2006-04-12 06:56:41 51°16.134 2°54.136 205.9 4 207 10.5
2006-04-12 06:56:45 51°16.13 2°54.133 204.5 3.9 203 10.5
2006-04-12 06:56:51 51°16.124 2°54.129 202.5 4 205 10.6
2006-04-12 06:56:55 51°16.12 2°54.127 200.2 3.9 199 10.5
2006-04-12 06:57:01 51°16.114 2°54.124 197.4 3.9 197 10.4
2006-04-12 06:57:05 51°16.11 2°54.123 194.2 3.9 195 10.4
2006-04-12 06:57:11 51°16.103 2°54.12 190.6 3.9 194 10.4
2006-04-12 06:57:15 51°16.099 2°54.119 187.4 3.8 191 10.4
2006-04-12 06:57:21 51°16.093 2°54.118 184 3.8 191 10.4
2006-04-12 06:57:25 51°16.089 2°54.117 180.5 3.7 186 10.3
2006-04-12 06:57:30 51°16.085 2°54.117 176.6 3.5 185 10.2
2006-04-12 06:57:35 51°16.08 2°54.116 172.9 3.6 184 10.2
2006-04-12 06:57:41 51°16.074 2°54.117 169.3 3.5 180 10.3
2006-04-12 06:57:46 51°16.069 2°54.117 165.6 3.3 178 10.3
2006-04-12 06:57:51 51°16.065 2°54.118 161.6 3.3 178 10.4
2006-04-12 06:57:55 51°16.062 2°54.119 157.3 3.2 172 10.3
2006-04-12 06:58:00 51°16.057 2°54.12 153.2 3.2 169 10.3
2006-04-12 06:58:05 51°16.053 2°54.121 150 3.2 168 10.3
2006-04-12 06:58:11 51°16.048 2°54.125 145.1 3.2 161 10.3
2006-04-12 06:58:15 51°16.045 2°54.127 140.9 3.2 158 10.2
2006-04-12 06:58:20 51°16.041 2°54.131 135.4 3.4 147 10.2
2006-04-12 06:58:25 51°16.037 2°54.136 128.2 3.4 142 10.2
2006-04-12 06:58:31 51°16.033 2°54.142 121.1 3.3 134 10.2
2006-04-12 06:58:35 51°16.031 2°54.146 113.8 3.2 131 10.2
2006-04-12 06:58:41 51°16.029 2°54.152 107.4 2.8 125 10.3
2006-04-12 06:58:45 51°16.027 2°54.156 102.4 2.6 124 10.2
2006-04-12 06:58:51 51°16.025 2°54.162 98.2 2.4 120 10.2
2006-04-12 06:58:56 51°16.024 2°54.166 94.3 2.4 120 10.2
2006-04-12 06:59:01 51°16.023 2°54.171 90.8 2.3 115 10.2
2006-04-12 06:59:05 51°16.022 2°54.174 87.6 2.2 111 10.2
2006-04-12 06:59:11 51°16.021 2°54.179 84.9 2 109 10.2
2006-04-12 06:59:15 51°16.02 2°54.182 82.5 2 107 10
2006-04-12 06:59:21 51°16.019 2°54.188 80.2 1.9 104 10
2006-04-12 06:59:26 51°16.019 2°54.191 77.3 1.9 104 10
2006-04-12 06:59:30 51°16.019 2°54.195 74.8 1.7 98 10
2006-04-12 06:59:35 51°16.019 2°54.198 72.8 1.7 97 10
2006-04-12 06:59:41 51°16.018 2°54.203 71.1 1.7 102 10.1
2006-04-12 06:59:45 51°16.017 2°54.206 69.7 1.8 104 10
2006-04-12 06:59:51 51°16.018 2°54.21 68.5 1.6 99 10
2006-04-12 06:59:55 51°16.017 2°54.212 66.5 1.5 94 10
2006-04-12 07:00:01 51°16.017 2°54.216 64.6 1.4 87 9.9
2006-04-12 07:00:06 51°16.017 2°54.219 62.9 1.4 90 9.9
2006-04-12 07:00:11 51°16.018 2°54.222 60.9 1.2 76 10
2006-04-12 07:00:15 51°16.018 2°54.224 58.4 1.2 80 10.1
2006-04-12 07:00:21 51°16.019 2°54.226 56 1.1 79 10.1
2006-04-12 07:00:26 51°16.019 2°54.229 53.7 1.1 73 10.2
2006-04-12 07:00:31 51°16.02 2°54.231 51.6 1 67 10.2
2006-04-12 07:00:35 51°16.02 2°54.233 49.3 1 65 10.3
2006-04-12 07:00:41 51°16.021 2°54.235 47.4 0.9 59 10.3
2006-04-12 07:00:45 51°16.022 2°54.236 45.7 1 66 10.2
2006-04-12 07:00:51 51°16.023 2°54.238 43.1 1 62 10.2
2006-04-12 07:00:55 51°16.023 2°54.24 41.6 1 56 10.1
2006-04-12 07:01:01 51°16.024 2°54.241 40.5 0.8 51 10
2006-04-12 07:01:05 51°16.024 2°54.242 38.9 0.9 41 10
2006-04-12 07:01:10 51°16.025 2°54.244 37.5 0.9 40 10
2006-04-12 07:01:15 51°16.026 2°54.245 35.7 0.9 28 10.1
2006-04-12 07:01:21 51°16.027 2°54.246 34.2 0.8 35 10.1
2006-04-12 07:01:26 51°16.028 2°54.247 32.6 0.8 37 10.2
2006-04-12 07:01:30 51°16.029 2°54.248 31.3 0.8 26 10.2
2006-04-12 07:01:35 51°16.03 2°54.249 29.9 0.8 32 10.2
2006-04-12 07:01:41 51°16.032 2°54.249 29.2 0.9 17 10.3
2006-04-12 07:01:45 51°16.032 2°54.25 28.4 0.9 23 10.4
2006-04-12 07:01:50 51°16.033 2°54.251 26.8 0.8 19 10.2
2006-04-12 07:01:55 51°16.034 2°54.251 26 0.9 13 10.2
2006-04-12 07:02:01 51°16.036 2°54.252 25 0.8 12 10.2
2006-04-12 07:02:05 51°16.036 2°54.252 23.9 0.9 8 10.3
2006-04-12 07:02:11 51°16.038 2°54.252 22.5 0.9 12 10.4
2006-04-12 07:02:15 51°16.039 2°54.253 21.5 0.8 6 10.3
2006-04-12 07:02:21 51°16.04 2°54.253 20.4 0.8 12 10.3
2006-04-12 07:02:25 51°16.041 2°54.253 19.7 0.8 6 10.2
2006-04-12 07:02:31 51°16.042 2°54.253 18.8 0.9 353 10.2
2006-04-12 07:02:36 51°16.043 2°54.253 18.2 0.7 4 10.3
2006-04-12 07:02:41 51°16.044 2°54.253 17.2 0.8 15 10.1
2006-04-12 07:02:46 51°16.045 2°54.253 16.6 0.7 352 10
2006-04-12 07:02:51 51°16.047 2°54.253 16.5 0.7 352 10
2006-04-12 07:02:55 51°16.047 2°54.253 15.7 0.7 353 10.2
2006-04-12 07:03:01 51°16.049 2°54.253 14.9 0.9 355 10.3
2006-04-12 07:03:05 51°16.05 2°54.252 13.6 0.9 353 10.3
2006-04-12 07:03:11 51°16.051 2°54.251 12.7 0.8 348 10.4
2006-04-12 07:03:15 51°16.051 2°54.252 12.2 0.7 350 10.4
2006-04-12 07:03:20 51°16.052 2°54.251 11.4 0.7 338 10.2
2006-04-12 07:03:25 51°16.053 2°54.251 11.1 0.7 351 10.3
2006-04-12 07:03:30 51°16.055 2°54.25 10.8 0.8 339 10.3
2006-04-12 07:03:35 51°16.056 2°54.25 10.5 0.7 353 10.3
2006-04-12 07:03:41 51°16.057 2°54.25 10.5 0.8 343 10.3
2006-04-12 07:03:45 51°16.057 2°54.249 10.3 0.7 354 10.2
2006-04-12 07:03:50 51°16.058 2°54.249 11.1 0.6 343 10
2006-04-12 07:03:55 51°16.059 2°54.249 12.4 0.6 359 10
2006-04-12 07:04:01 51°16.06 2°54.249 13.5 0.5 350 9.9
2006-04-12 07:04:06 51°16.061 2°54.249 13.2 0.5 339 10
2006-04-12 07:04:10 51°16.061 2°54.249 13.4 0.5 346 10.1
2006-04-12 07:04:15 51°16.062 2°54.249 13.5 0.6 350 10.2
2006-04-12 07:04:21 51°16.064 2°54.249 13.1 0.7 349 10.3
2006-04-12 07:04:26 51°16.065 2°54.249 13 0.6 349 10.3
2006-04-12 07:04:31 51°16.065 2°54.248 13 0.5 344 10.3
2006-04-12 07:04:35 51°16.066 2°54.248 12.7 0.6 330 10.3
2006-04-12 07:04:41 51°16.066 2°54.248 11.8 0.4 353 10.3
2006-04-12 07:04:46 51°16.067 2°54.247 11.4 0.4 343 10.3
2006-04-12 07:04:51 51°16.067 2°54.246 11.1 0.4 333 10.3
2006-04-12 07:04:55 51°16.067 2°54.246 11.5 0.4 313 10.4
2006-04-12 07:05:01 51°16.068 2°54.246 11.6 0.2 358 10.3
2006-04-12 07:05:05 51°16.068 2°54.246 12.1 0.2 310 10.4
2006-04-12 07:05:11 51°16.068 2°54.245 12.1 0.3 298 10.3
2006-04-12 07:05:16 51°16.068 2°54.245 12.5 0.2 308 10.2
2006-04-12 07:05:21 51°16.068 2°54.245 12.8 0.2 254 10.2
2006-04-12 07:05:25 51°16.068 2°54.245 12.7 0.1 234 10.2
2006-04-12 07:05:31 51°16.068 2°54.244 13 0.2 248 10.2
2006-04-12 07:05:35 51°16.068 2°54.244 12.8 0.2 229 10.2
2006-04-12 07:05:41 51°16.068 2°54.243 12.5 0.2 225 10.2
2006-04-12 07:05:45 51°16.068 2°54.243 12.2 0.3 236 10.2
2006-04-12 07:05:51 51°16.067 2°54.242 12.3 0.4 208 10.3
2006-04-12 07:05:56 51°16.066 2°54.242 12.3 0.4 207 10.2
2006-04-12 07:06:01 51°16.065 2°54.242 12.3 0.6 196 10.2
2006-04-12 07:06:05 51°16.065 2°54.241 13.3 0.7 200 10.1
2006-04-12 07:06:10 51°16.064 2°54.241 14.3 0.6 197 10.2
2006-04-12 07:06:16 51°16.063 2°54.241 14.6 0.5 196 10.2
2006-04-12 07:06:21 51°16.062 2°54.24 15.3 0.6 194 10.2
2006-04-12 07:06:25 51°16.062 2°54.24 16.4 0.8 187 10.4
2006-04-12 07:06:31 51°16.06 2°54.239 17.1 0.8 202 10.5
2006-04-12 07:06:35 51°16.059 2°54.239 17.9 0.8 191 10.4
2006-04-12 07:06:41 51°16.058 2°54.238 19.1 0.8 199 10.5
2006-04-12 07:06:45 51°16.057 2°54.238 19.6 0.8 187 10.5
2006-04-12 07:06:50 51°16.056 2°54.238 20.3 0.9 192 10.3
2006-04-12 07:06:55 51°16.055 2°54.237 22 0.9 193 10.2
2006-04-12 07:07:01 51°16.053 2°54.237 23.1 0.9 199 10.2
2006-04-12 07:07:06 51°16.052 2°54.236 23.8 0.8 186 10.2
2006-04-12 07:07:11 51°16.05 2°54.236 24.3 0.9 195 10.3
2006-04-12 07:07:15 51°16.05 2°54.235 24.6 0.9 192 10.3
2006-04-12 07:07:21 51°16.048 2°54.235 25.3 0.9 187 10.3
2006-04-12 07:07:25 51°16.047 2°54.235 25.8 1 196 10.4
2006-04-12 07:07:31 51°16.046 2°54.234 25.9 0.7 180 10.4
2006-04-12 07:07:36 51°16.046 2°54.234 25.7 0.7 180 10.3
2006-04-12 07:07:41 51°16.046 2°54.235 25.9 0.3 169 10.4
2006-04-12 07:07:45 51°16.046 2°54.235 26.1 0.3 21 10.3
2006-04-12 07:07:51 51°16.048 2°54.236 25.6 0.8 30 10.4
2006-04-12 07:07:55 51°16.049 2°54.237 24.2 1.1 14 10.4
2006-04-12 07:08:01 51°16.051 2°54.238 22.7 1.3 19 10.3
2006-04-12 07:08:05 51°16.052 2°54.237 20.3 1.5 9 10.2
2006-04-12 07:08:10 51°16.055 2°54.238 17.8 1.7 4 10.2
2006-04-12 07:08:15 51°16.058 2°54.238 15.3 1.9 2 10.2
2006-04-12 07:08:21 51°16.063 2°54.237 11.8 2.5 358 10.2
2006-04-12 07:08:26 51°16.067 2°54.235 7.4 2.8 346 10.1
2006-04-12 07:08:30 51°16.07 2°54.233 2.3 3.4 341 10.3
2006-04-12 07:08:35 51°16.075 2°54.229 356.8 3.5 337 10.3
2006-04-12 07:08:41 51°16.081 2°54.223 350.5 4.1 328 10.3
2006-04-12 07:08:45 51°16.085 2°54.218 344.6 4.5 323 10.4
2006-04-12 07:08:50 51°16.089 2°54.211 339.7 4.8 319 10.4
2006-04-12 07:08:55 51°16.095 2°54.203 335.2 5 318 10.5
2006-04-12 07:09:01 51°16.101 2°54.192 330.1 5.5 313 10.5
2006-04-12 07:09:05 51°16.105 2°54.185 327.4 5.7 312 10.4
2006-04-12 07:09:10 51°16.111 2°54.174 326.6 6 313 10.5
2006-04-12 07:09:16 51°16.118 2°54.163 326.5 5.9 313 10.5
2006-04-12 07:09:21 51°16.124 2°54.152 326.4 6.2 312 10.4
2006-04-12 07:09:26 51°16.13 2°54.142 326.5 6.4 313 10.5
2006-04-12 07:09:31 51°16.136 2°54.132 326.9 6.4 313 10.4
2006-04-12 07:09:35 51°16.142 2°54.123 327.1 6.6 314 10.4
2006-04-12 07:09:41 51°16.149 2°54.11 327.9 6.8 314 10.4
2006-04-12 07:09:45 51°16.155 2°54.101 327.7 6.9 314 10.5
2006-04-12 07:09:51 51°16.163 2°54.088 327.7 6.9 314 10.4
2006-04-12 07:09:55 51°16.168 2°54.079 327.5 7 314 10.4
2006-04-12 07:10:01 51°16.176 2°54.065 327.8 7 314 10.5
2006-04-12 07:10:05 51°16.182 2°54.056 328.2 7.1 314 10.4
2006-04-12 07:10:11 51°16.19 2°54.043 328.2 7.3 314 10.5
2006-04-12 07:10:16 51°16.198 2°54.031 327.9 7.3 315 10.3
2006-04-12 07:10:21 51°16.205 2°54.02 328.7 7.1 315 10.4
2006-04-12 07:10:25 51°16.21 2°54.011 329.4 7.3 314 10.5
2006-04-12 07:10:30 51°16.217 2°53.999 329.4 7.3 314 10.4
2006-04-12 07:10:36 51°16.226 2°53.985 328.8 7.4 314 10.6
2006-04-12 07:10:41 51°16.233 2°53.973 328.5 7.4 315 10.6
2006-04-12 07:10:45 51°16.239 2°53.964 328.7 7.4 315 10.7
2006-04-12 07:10:51 51°16.248 2°53.95 329.4 7.5 315 10.6
2006-04-12 07:10:55 51°16.254 2°53.941 329.7 7.5 315 10.6
2006-04-12 07:11:01 51°16.263 2°53.927 329.8 7.5 316 10.7
2006-04-12 07:11:05 51°16.269 2°53.918 329.7 7.5 316 10.7
2006-04-12 07:11:10 51°16.276 2°53.907 329.8 7.4 317 10.7
2006-04-12 07:11:15 51°16.284 2°53.896 330.1 7.2 317 10.6
2006-04-12 07:11:20 51°16.291 2°53.885 330.5 7 317 10.7
2006-04-12 07:11:25 51°16.296 2°53.876 330.4 6.7 317 10.6
2006-04-12 07:11:30 51°16.303 2°53.866 330.9 6.4 317 10.7
2006-04-12 07:11:35 51°16.31 2°53.857 330.9 6.3 316 10.6
2006-04-12 07:11:41 51°16.317 2°53.845 331.1 6.3 318 10.7
2006-04-12 07:11:46 51°16.323 2°53.836 331 6.2 316 10.8
2006-04-12 07:11:51 51°16.329 2°53.827 330.8 6 316 10.8
2006-04-12 07:11:55 51°16.334 2°53.82 330.2 5.9 316 10.9
2006-04-12 07:12:00 51°16.34 2°53.81 329.9 5.8 316 10.9
2006-04-12 07:12:05 51°16.345 2°53.802 328.9 5.7 316 10.7
2006-04-12 07:12:11 51°16.352 2°53.791 328.7 5.5 317 10.9
2006-04-12 07:12:15 51°16.356 2°53.785 329.1 5.4 316 10.8
2006-04-12 07:12:19 51°16.36 2°53.778 329 5.3 316 10.8
2006-04-12 07:12:25 51°16.367 2°53.768 328.5 5.3 315 10.9
2006-04-12 07:12:29 51°16.371 2°53.761 328 5.2 314 10.9
2006-04-12 07:12:35 51°16.376 2°53.752 327.7 5.1 314 10.7
2006-04-12 07:12:41 51°16.382 2°53.741 327.2 5 314 10.8
2006-04-12 07:12:45 51°16.386 2°53.735 327 5 312 10.9
2006-04-12 07:12:50 51°16.39 2°53.726 326.5 5.1 312 10.9
2006-04-12 07:12:55 51°16.395 2°53.718 325.9 5.1 312 11
2006-04-12 07:13:01 51°16.401 2°53.708 325.5 5.1 311 11
2006-04-12 07:13:06 51°16.405 2°53.7 325.2 5 313 11.1
2006-04-12 07:13:10 51°16.409 2°53.694 325.2 4.9 311 11
2006-04-12 07:13:16 51°16.414 2°53.684 325.8 4.9 311 10.9
2006-04-12 07:13:21 51°16.419 2°53.676 325.7 5 311 11
2006-04-12 07:13:25 51°16.422 2°53.669 325.6 4.9 312 11
2006-04-12 07:13:30 51°16.427 2°53.662 325.7 4.8 312 10.8
2006-04-12 07:13:35 51°16.432 2°53.653 325.7 4.8 312 11
2006-04-12 07:13:40 51°16.436 2°53.645 325.9 4.9 311 11
2006-04-12 07:13:46 51°16.442 2°53.635 325.9 4.9 312 11
2006-04-12 07:13:51 51°16.445 2°53.628 326 4.9 313 11.2
2006-04-12 07:13:55 51°16.449 2°53.622 326.1 4.8 314 11
2006-04-12 07:14:01 51°16.455 2°53.612 326.5 4.9 312 10.9
2006-04-12 07:14:06 51°16.459 2°53.604 326.9 4.9 312 10.8
2006-04-12 07:14:10 51°16.463 2°53.597 326.6 4.9 312 11
2006-04-12 07:14:15 51°16.468 2°53.589 326.6 4.9 313 11.1
2006-04-12 07:14:21 51°16.473 2°53.58 326.5 4.8 312 11
2006-04-12 07:14:26 51°16.478 2°53.572 326.6 4.8 312 11.1
2006-04-12 07:14:31 51°16.482 2°53.564 326.9 5 313 11.2
2006-04-12 07:14:35 51°16.486 2°53.558 326.9 4.9 313 11.3
2006-04-12 07:14:39 51°16.49 2°53.552 326.9 4.9 314 11
2006-04-12 07:14:45 51°16.496 2°53.542 327.3 4.9 314 11
2006-04-12 07:14:50 51°16.5 2°53.535 327.5 5 315 11.1
2006-04-12 07:14:55 51°16.505 2°53.527 327.5 5 315 11.1
2006-04-12 07:15:01 51°16.51 2°53.519 327.6 4.8 314 11.1
2006-04-12 07:15:06 51°16.515 2°53.511 327.9 4.8 316 11
2006-04-12 07:15:10 51°16.519 2°53.505 328.3 4.8 314 11
2006-04-12 07:15:16 51°16.525 2°53.495 328.1 4.8 314 11
2006-04-12 07:15:21 51°16.53 2°53.487 327.8 4.9 313 11.1
2006-04-12 07:15:25 51°16.533 2°53.481 327.1 4.9 314 11.1
2006-04-12 07:15:31 51°16.538 2°53.473 326.7 4.6 314 11
2006-04-12 07:15:35 51°16.542 2°53.467 327.3 4.6 315 11
2006-04-12 07:15:41 51°16.547 2°53.458 327.5 4.7 313 11
2006-04-12 07:15:45 51°16.551 2°53.452 327.4 4.7 313 11
2006-04-12 07:15:50 51°16.556 2°53.444 327.3 4.7 314 11
2006-04-12 07:15:55 51°16.56 2°53.436 326.9 4.7 313 11.1
2006-04-12 07:16:01 51°16.565 2°53.427 326.7 4.9 313 11.1
2006-04-12 07:16:05 51°16.569 2°53.421 326.5 4.9 313 11.1
2006-04-12 07:16:10 51°16.574 2°53.412 326.1 4.9 312 11.1
2006-04-12 07:16:15 51°16.578 2°53.405 325.9 4.9 312 11.1
2006-04-12 07:16:21 51°16.584 2°53.395 325.9 4.9 312 11
2006-04-12 07:16:25 51°16.588 2°53.388 326.5 5 314 11
2006-04-12 07:16:31 51°16.593 2°53.379 326.8 5 314 11.1
2006-04-12 07:16:35 51°16.597 2°53.373 327.1 4.9 315 11
2006-04-12 07:16:39 51°16.601 2°53.367 327.3 4.8 314 10.8
2006-04-12 07:16:45 51°16.606 2°53.358 327.9 4.8 314 10.7
2006-04-12 07:16:51 51°16.612 2°53.348 328 4.9 313 10.8
2006-04-12 07:16:55 51°16.616 2°53.342 328 4.9 315 10.9
2006-04-12 07:17:01 51°16.622 2°53.333 328 5 314 11
2006-04-12 07:17:05 51°16.626 2°53.326 327.8 5 314 11
2006-04-12 07:17:11 51°16.631 2°53.316 327.8 5 315 10.9
2006-04-12 07:17:15 51°16.635 2°53.31 327.9 5.1 315 11
2006-04-12 07:17:21 51°16.641 2°53.301 328 5.1 315 10.9
2006-04-12 07:17:25 51°16.645 2°53.294 328.2 5.1 315 10.9
2006-04-12 07:17:30 51°16.65 2°53.286 328.3 5.1 315 10.9
2006-04-12 07:17:35 51°16.655 2°53.278 328.2 5.1 315 10.9
2006-04-12 07:17:41 51°16.661 2°53.269 328.4 5 315 10.7
2006-04-12 07:17:46 51°16.666 2°53.261 328.7 4.9 316 10.6
2006-04-12 07:17:50 51°16.67 2°53.256 329.2 4.9 316 10.7
2006-04-12 07:17:55 51°16.674 2°53.249 329.2 4.9 317 10.7
2006-04-12 07:18:01 51°16.68 2°53.24 329.1 4.7 316 10.6
2006-04-12 07:18:05 51°16.684 2°53.234 329.3 4.8 315 10.6
2006-04-12 07:18:11 51°16.69 2°53.225 329.3 4.8 316 10.8
2006-04-12 07:18:15 51°16.693 2°53.219 328.9 4.8 315 10.8
2006-04-12 07:18:21 51°16.699 2°53.211 328.5 4.8 316 10.8
2006-04-12 07:18:25 51°16.703 2°53.205 328.7 4.9 316 10.7
2006-04-12 07:18:30 51°16.708 2°53.198 328.8 4.8 316 10.6
2006-04-12 07:18:35 51°16.713 2°53.189 329.2 4.8 317 10.8
2006-04-12 07:18:41 51°16.719 2°53.181 329.1 4.7 316 10.6
2006-04-12 07:18:46 51°16.724 2°53.174 329.6 4.8 318 10.6
2006-04-12 07:18:51 51°16.728 2°53.167 330.1 4.7 317 10.6
2006-04-12 07:18:55 51°16.732 2°53.161 330.1 4.7 317 10.6
2006-04-12 07:18:59 51°16.736 2°53.155 329.8 4.8 317 10.7
2006-04-12 07:19:05 51°16.742 2°53.147 329.5 4.8 316 10.7
2006-04-12 07:19:11 51°16.748 2°53.138 329.5 4.8 316 10.5
2006-04-12 07:19:15 51°16.752 2°53.132 329.4 4.9 317 10.6
2006-04-12 07:19:21 51°16.757 2°53.124 329.1 4.8 317 10.6
2006-04-12 07:19:25 51°16.761 2°53.118 329 4.8 317 10.5
2006-04-12 07:19:30 51°16.766 2°53.11 329.1 4.8 317 10.4
2006-04-12 07:19:35 51°16.771 2°53.103 329.3 4.9 317 10.5
2006-04-12 07:19:41 51°16.777 2°53.095 329.5 4.8 317 10.4
2006-04-12 07:19:46 51°16.782 2°53.087 329.5 4.8 318 10.2
2006-04-12 07:19:50 51°16.786 2°53.082 329.5 4.9 318 10.3
2006-04-12 07:19:56 51°16.791 2°53.073 329.7 4.8 318 10.2
2006-04-12 07:20:01 51°16.797 2°53.066 329.8 4.7 317 10
2006-04-12 07:20:05 51°16.801 2°53.06 329.6 4.7 317 10
2006-04-12 07:20:11 51°16.806 2°53.052 329.5 4.6 316 9.9
2006-04-12 07:20:15 51°16.809 2°53.047 329.2 4.6 317 9.6
2006-04-12 07:20:21 51°16.815 2°53.038 329.1 4.6 315 9.4
2006-04-12 07:20:25 51°16.818 2°53.032 328.9 4.6 315 9.1
2006-04-12 07:20:30 51°16.823 2°53.025 328.6 4.6 314 9
2006-04-12 07:20:35 51°16.828 2°53.018 328.4 4.6 316 8.8
2006-04-12 07:20:41 51°16.833 2°53.009 328.5 4.7 316 8.7
2006-04-12 07:20:46 51°16.838 2°53.001 328.6 4.7 316 8.4
2006-04-12 07:20:51 51°16.842 2°52.994 328.3 4.7 315 8.2
2006-04-12 07:20:55 51°16.846 2°52.988 328.1 4.7 315 8.1
2006-04-12 07:20:59 51°16.85 2°52.982 328.5 4.9 315 8.2
2006-04-12 07:21:05 51°16.856 2°52.973 328.4 4.7 314 8.1
2006-04-12 07:21:11 51°16.861 2°52.964 328 4.8 314 8
2006-04-12 07:21:15 51°16.865 2°52.958 328.1 4.8 315 8
2006-04-12 07:21:21 51°16.871 2°52.949 328.3 4.8 314 8
2006-04-12 07:21:25 51°16.874 2°52.943 328.2 4.7 316 8.1
2006-04-12 07:21:31 51°16.88 2°52.935 328.4 4.7 316 8.2
2006-04-12 07:21:35 51°16.884 2°52.929 329.1 4.7 317 8.2
2006-04-12 07:21:41 51°16.89 2°52.92 329.8 4.6 317 8.2
2006-04-12 07:21:46 51°16.894 2°52.913 329.8 4.6 316 8.4
2006-04-12 07:21:50 51°16.898 2°52.907 329.6 4.7 316 8.5
2006-04-12 07:21:56 51°16.903 2°52.899 329.3 4.8 316 8.5
2006-04-12 07:22:01 51°16.908 2°52.891 329.2 4.7 316 8.6
2006-04-12 07:22:05 51°16.911 2°52.886 329.5 4.8 316 8.7
2006-04-12 07:22:10 51°16.917 2°52.878 329.5 4.8 317 8.7
2006-04-12 07:22:15 51°16.921 2°52.871 329.8 4.8 316 8.8
2006-04-12 07:22:21 51°16.928 2°52.862 330.1 4.8 318 8.7
2006-04-12 07:22:26 51°16.933 2°52.855 330.2 4.7 318 8.8
2006-04-12 07:22:31 51°16.937 2°52.849 330.7 4.7 320 8.8
2006-04-12 07:22:35 51°16.941 2°52.843 331.7 4.6 319 8.7
2006-04-12 07:22:41 51°16.947 2°52.835 332 4.6 319 8.8
2006-04-12 07:22:46 51°16.952 2°52.829 332.1 4.6 319 8.8
2006-04-12 07:22:51 51°16.957 2°52.822 332.9 4.7 320 8.9
2006-04-12 07:22:55 51°16.961 2°52.816 332.7 4.7 319 9
2006-04-12 07:23:01 51°16.967 2°52.808 332.5 4.8 319 9.1
2006-04-12 07:23:06 51°16.972 2°52.801 332.1 4.9 319 9.1
2006-04-12 07:23:11 51°16.977 2°52.793 331.7 4.8 318 9.1
2006-04-12 07:23:15 51°16.981 2°52.787 331.4 4.9 317 9.2
2006-04-12 07:23:21 51°16.987 2°52.779 331.1 4.9 317 9.2
2006-04-12 07:23:25 51°16.991 2°52.772 330.9 4.9 317 9.3
2006-04-12 07:23:30 51°16.996 2°52.766 330.6 4.7 319 9.2
2006-04-12 07:23:35 51°17.001 2°52.759 330.4 4.7 319 9.2
2006-04-12 07:23:41 51°17.007 2°52.75 331.6 4.8 319 9.3
2006-04-12 07:23:45 51°17.011 2°52.745 331.7 4.8 318 9.4
2006-04-12 07:23:51 51°17.017 2°52.737 331.6 4.7 319 9.3
2006-04-12 07:23:55 51°17.021 2°52.732 331.8 4.5 320 9.3
2006-04-12 07:24:01 51°17.028 2°52.724 332.4 4.4 320 9.4
2006-04-12 07:24:06 51°17.032 2°52.718 333.2 4.4 321 9.4
2006-04-12 07:24:10 51°17.036 2°52.713 333.4 4.5 319 9.6
2006-04-12 07:24:16 51°17.041 2°52.705 332.9 4.6 319 9.6
2006-04-12 07:24:21 51°17.046 2°52.698 332.4 4.5 319 9.5
2006-04-12 07:24:25 51°17.05 2°52.693 332.1 4.5 319 9.6
2006-04-12 07:24:31 51°17.056 2°52.684 332.2 4.6 319 9.7
2006-04-12 07:24:35 51°17.06 2°52.679 332.3 4.6 319 9.7
2006-04-12 07:24:41 51°17.065 2°52.67 332 4.7 318 9.6
2006-04-12 07:24:45 51°17.069 2°52.665 331.6 4.8 317 9.5
2006-04-12 07:24:51 51°17.075 2°52.656 331.3 4.8 317 9.6
2006-04-12 07:24:55 51°17.079 2°52.65 331.1 4.8 317 9.5
2006-04-12 07:24:59 51°17.083 2°52.644 330.7 4.9 317 9.4
2006-04-12 07:25:05 51°17.089 2°52.635 330.7 5 317 9.3
2006-04-12 07:25:11 51°17.094 2°52.626 330.6 4.9 316 9.3
2006-04-12 07:25:15 51°17.098 2°52.62 330.6 4.9 317 9.1
2006-04-12 07:25:21 51°17.105 2°52.612 330.7 4.8 317 9
2006-04-12 07:25:26 51°17.11 2°52.604 331.1 4.8 317 9
2006-04-12 07:25:31 51°17.114 2°52.597 331.4 4.9 317 9.1
2006-04-12 07:25:35 51°17.118 2°52.59 331 5 317 9.2
2006-04-12 07:25:39 51°17.122 2°52.584 330.9 4.9 317 9.2
2006-04-12 07:25:45 51°17.128 2°52.576 330.9 4.8 318 9.2
2006-04-12 07:25:51 51°17.135 2°52.568 331.4 4.9 319 9.1
2006-04-12 07:25:55 51°17.139 2°52.562 332 4.8 321 9.4
2006-04-12 07:26:01 51°17.145 2°52.554 332.7 4.8 319 9.2
2006-04-12 07:26:05 51°17.149 2°52.548 333 4.8 320 9.3
2006-04-12 07:26:11 51°17.155 2°52.54 333.1 4.8 320 9.1
2006-04-12 07:26:16 51°17.16 2°52.533 333 4.8 319 9.4
2006-04-12 07:26:19 51°17.163 2°52.529 332.9 4.8 320 9.3
2006-04-12 07:26:25 51°17.169 2°52.521 332.8 4.8 319 9.6
2006-04-12 07:26:30 51°17.174 2°52.514 332.5 4.8 318 9.4
2006-04-12 07:26:35 51°17.179 2°52.506 331.9 4.9 318 9.6
2006-04-12 07:26:41 51°17.185 2°52.497 331.4 4.9 317 9.5
2006-04-12 07:26:46 51°17.19 2°52.49 331 4.9 317 9.6
2006-04-12 07:26:51 51°17.195 2°52.483 330.5 4.8 317 9.3
2006-04-12 07:26:55 51°17.198 2°52.477 330.3 4.9 316 9.4
2006-04-12 07:27:01 51°17.204 2°52.468 330.2 4.8 316 9.3
2006-04-12 07:27:06 51°17.209 2°52.46 330 4.8 315 9.5
2006-04-12 07:27:11 51°17.214 2°52.452 330.1 4.9 315 9.5
2006-04-12 07:27:15 51°17.218 2°52.446 329.8 4.9 315 9.4
2006-04-12 07:27:21 51°17.223 2°52.437 329.5 4.9 313 9.7
2006-04-12 07:27:25 51°17.227 2°52.43 329.2 4.9 313 9.6